Terminal Aerodrome Forecast
Issued by NWS

Home | Current Version | Previous Version | Text Only | Print | Product List | Glossary On
Versions: 1 2 3 4 5 6 7 8 9 10 11 12 13
000
FTUS41 KGYX 232320
TAFAUG
TAF
KAUG 232320Z 2400/2424 00000KT P6SM SCT100 SCT200
     FM240900 14004KT P6SM BKN090
     FM241400 09006KT P6SM OVC050
     FM241700 08007KT P6SM -RA OVC035
     FM242000 06006KT 5SM -RA BR OVC025=

USA.gov is the U.S. government's official web portal to all federal, state and local government web resources and services.